Leicester, Nebraska
Current Conditions -  °F | °C
As of 9:53 AM on Friday 21 Nov 2014 (Local Time) from KHSI Reporting Station
Clear Clear  
Wind Chill: 20°   Ceiling: Unl
Heat Index: 29°   Visibility: 10mi
Dew Point: 20°   Wind: 9mph
Humidity: 69%   Direction: 190°S
Pressure: 30.1"   Gusts: NA
Location:  40.6549°N, 98.2217°W
Report Text: KHSI 211553Z AUTO 19008KT 10SM CLR M02/M07 A3010 RMK AO2 SLP217 T10171067
Loading
Personal Weather Stations






























Interactive Weather Map New forecast layout! Learn more

10-Day Weather Forecast

Advertisements
Track Severe Weather on mobile